Terminal Aerodrome Forecast
Issued by NWS Boston, MA

Home | Current Version | Previous Version | Text Only | Print | Product List | Glossary On
Versions: 1 2 3 4 5 6 7 8 9 10 11 12 13 14 15 16 17 18 19 20 21 22 23 24 25 26 27 28 29 30 31 32 33 34 35 36
000
FTUS41 KBOX 070545
TAFBOS
TAF
KBOS 070545Z 0706/0812 20006KT P6SM SCT150
     FM071100 16006KT P6SM SCT015 BKN120
     FM071300 16008KT P6SM BKN050
     FM071500 16011KT P6SM BKN020
     FM071600 16012KT P6SM BKN050
     FM072200 20013G23KT P6SM BKN050
     FM080200 22011KT P6SM BKN010=

USA.gov is the U.S. government's official web portal to all federal, state and local government web resources and services.